Time;durP1;ratioP1;P1;durP2;ratioP2;P2;SDS_P1;SDS_P2;PMS_P1;PMS_P2;Temp;Humidity;BMP_temperature;BMP_pressure;BME280_temperature;BME280_humidity;BME280_pressure;Samples;Min_cycle;Max_cycle;Signal;HPM_P1;HPM_P2
2023/04/18 00:00:12;;;;;;;;;;;;;;;17.35;55.23;103086.91;2062638;28;20504;-53
2023/04/18 00:01:16;;;;;;;;;;;;;;;17.34;55.13;103079.03;2075533;28;20431;-53
2023/04/18 00:02:18;;;;;;;;;;;;;;;17.34;55.32;103085.31;2077512;28;20382;-53
2023/04/18 00:03:20;;;;;;;;;;;;;;;17.33;55.30;103083.69;2079522;28;20351;-53
2023/04/18 00:04:22;;;;;;;;;;;;;;;17.33;55.30;103077.47;2071723;28;19929;-51
2023/04/18 00:05:25;;;;;;;;;;;;;;;17.33;55.03;103080.19;2075071;28;20274;-51
2023/04/18 00:06:28;;;;;;;;;;;;;;;17.33;55.32;103077.47;2075190;28;20023;-54
2023/04/18 00:07:31;;;;;;;;;;;;;;;17.32;55.35;103082.09;2075398;28;19937;-54
2023/04/18 00:08:34;;;;;;;;;;;;;;;17.32;55.47;103081.28;2079048;28;19929;-53
2023/04/18 00:09:37;;;;;;;;;;;;;;;17.34;55.19;103089.97;2077959;28;19928;-54
2023/04/18 00:10:38;;;;;;;;;;;;;;;17.32;55.28;103075.84;2071817;28;19937;-54
2023/04/18 00:11:41;;;;;;;;;;;;;;;17.31;55.50;103083.25;2065289;28;19933;-54
2023/04/18 00:12:43;;;;;;;;;;;;;;;17.32;55.48;103084.84;2057108;28;20012;-52
2023/04/18 00:13:46;;;;;;;;;;;;;;;17.31;55.35;103083.25;2068090;28;19936;-52
2023/04/18 00:14:49;;;;;;;;;;;;;;;17.31;55.15;103079.72;2078531;28;19929;-53
2023/04/18 00:15:53;;;;;;;;;;;;;;;17.31;55.30;103085.16;2073990;28;20052;-55
2023/04/18 00:16:56;;;;;;;;;;;;;;;17.31;55.28;103085.16;2076628;28;19983;-55
2023/04/18 00:17:59;;;;;;;;;;;;;;;17.30;55.35;103084.38;2072015;28;19937;-54
2023/04/18 00:19:03;;;;;;;;;;;;;;;17.30;55.40;103083.59;2068710;28;19936;-56
2023/04/18 00:20:08;;;;;;;;;;;;;;;17.29;55.24;103084.69;2072575;28;20385;-57
2023/04/18 00:21:09;;;;;;;;;;;;;;;17.30;54.87;103084.38;2071774;28;19982;-57
2023/04/18 00:22:13;;;;;;;;;;;;;;;17.29;55.12;103096.44;2070437;28;20427;-56
2023/04/18 00:23:15;;;;;;;;;;;;;;;17.30;55.29;103086.31;2067541;28;19937;-55
2023/04/18 00:24:19;;;;;;;;;;;;;;;17.30;55.02;103089.03;2066146;28;19932;-57
2023/04/18 00:25:20;;;;;;;;;;;;;;;17.30;55.48;103089.03;2068048;28;20048;-54
2023/04/18 00:26:23;;;;;;;;;;;;;;;17.29;55.12;103087.44;2068616;28;20028;-56
2023/04/18 00:27:26;;;;;;;;;;;;;;;17.29;55.26;103092.88;2070927;28;19945;-56
2023/04/18 00:28:29;;;;;;;;;;;;;;;17.28;55.01;103091.28;2071136;28;19979;-56
2023/04/18 00:29:30;;;;;;;;;;;;;;;17.29;55.32;103095.63;2071883;28;20431;-56
2023/04/18 00:30:33;;;;;;;;;;;;;;;17.28;55.33;103091.28;2072474;28;20420;-56
2023/04/18 00:31:37;;;;;;;;;;;;;;;17.27;54.88;103095.94;2069270;28;19939;-55
2023/04/18 00:32:40;;;;;;;;;;;;;;;17.28;55.27;103091.28;2070181;28;19937;-55
2023/04/18 00:33:42;;;;;;;;;;;;;;;17.28;55.13;103094.03;2071105;28;19983;-58
2023/04/18 00:34:45;;;;;;;;;;;;;;;17.28;54.98;103094.03;2079846;28;20438;-55
2023/04/18 00:35:46;;;;;;;;;;;;;;;17.28;55.25;103099.50;2077993;28;19932;-57
2023/04/18 00:36:49;;;;;;;;;;;;;;;17.27;55.30;103101.41;2075278;28;19945;-57
2023/04/18 00:37:51;;;;;;;;;;;;;;;17.27;55.20;103095.13;2064808;28;19929;-57
2023/04/18 00:38:54;;;;;;;;;;;;;;;17.27;55.11;103089.69;2070756;28;19934;-57
2023/04/18 00:39:57;;;;;;;;;;;;;;;17.27;55.30;103095.94;2076638;28;19929;-56
2023/04/18 00:40:59;;;;;;;;;;;;;;;17.27;55.04;103097.88;2069556;28;19930;-55
2023/04/18 00:42:02;;;;;;;;;;;;;;;17.26;55.13;103094.34;2071523;28;19929;-57
2023/04/18 00:43:06;;;;;;;;;;;;;;;17.26;55.33;103105.28;2072053;28;19929;-55
2023/04/18 00:44:08;;;;;;;;;;;;;;;17.27;55.23;103095.13;2063984;28;19929;-57
2023/04/18 00:45:11;;;;;;;;;;;;;;;17.26;54.89;103097.09;2071043;28;20373;-55
2023/04/18 00:46:12;;;;;;;;;;;;;;;17.26;54.93;103097.09;2071979;28;19972;-57
2023/04/18 00:47:16;;;;;;;;;;;;;;;17.25;55.03;103103.66;2070827;28;19957;-54
2023/04/18 00:48:19;;;;;;;;;;;;;;;17.26;55.32;103099.00;2062326;28;20456;-55
2023/04/18 00:49:22;;;;;;;;;;;;;;;17.25;55.27;103090.00;2047280;28;19930;-56
2023/04/18 00:50:25;;;;;;;;;;;;;;;17.26;55.19;103096.28;2054727;28;19977;-57
2023/04/18 00:51:28;;;;;;;;;;;;;;;17.25;55.13;103095.47;2073037;28;19928;-56
2023/04/18 00:52:30;;;;;;;;;;;;;;;17.25;55.29;103092.75;2072512;28;19975;-55
2023/04/18 00:53:33;;;;;;;;;;;;;;;17.25;55.08;103091.97;2072491;28;20008;-58
2023/04/18 00:54:35;;;;;;;;;;;;;;;17.25;54.96;103100.16;2070451;28;20472;-57
2023/04/18 00:55:39;;;;;;;;;;;;;;;17.25;55.36;103100.16;2070242;28;20056;-57
2023/04/18 00:56:41;;;;;;;;;;;;;;;17.25;55.17;103094.69;2070125;28;19925;-56
2023/04/18 00:57:44;;;;;;;;;;;;;;;17.24;55.18;103096.63;2065822;28;20017;-57
2023/04/18 00:58:46;;;;;;;;;;;;;;;17.24;55.13;103098.53;2078313;28;19965;-57
2023/04/18 00:59:49;;;;;;;;;;;;;;;17.24;55.11;103098.53;2080699;28;19931;-55
2023/04/18 01:00:52;;;;;;;;;;;;;;;17.24;55.39;103101.25;2079095;28;19968;-57
2023/04/18 01:01:54;;;;;;;;;;;;;;;17.23;55.03;103094.22;2075760;28;19929;-55
2023/04/18 01:02:57;;;;;;;;;;;;;;;17.23;55.07;103096.94;2073891;28;20393;-57
2023/04/18 01:03:59;;;;;;;;;;;;;;;17.24;55.13;103101.25;2071225;28;19929;-57
2023/04/18 01:05:02;;;;;;;;;;;;;;;17.22;55.13;103096.13;2078046;28;19976;-57
2023/04/18 01:06:04;;;;;;;;;;;;;;;17.23;55.02;103100.47;2064440;28;19968;-54
2023/04/18 01:07:08;;;;;;;;;;;;;;;17.23;54.97;103095.03;2064615;28;20468;-57
2023/04/18 01:08:10;;;;;;;;;;;;;;;17.23;55.10;103102.41;2073348;28;19937;-54
2023/04/18 01:09:13;;;;;;;;;;;;;;;17.22;55.37;103107.06;2065631;28;19925;-56
2023/04/18 01:10:15;;;;;;;;;;;;;;;17.22;55.36;103098.09;2074605;28;20067;-57
2023/04/18 01:11:19;;;;;;;;;;;;;;;17.22;55.28;103104.31;2077323;28;19930;-57
2023/04/18 01:12:21;;;;;;;;;;;;;;;17.21;55.24;103094.53;2069356;28;20024;-57
2023/04/18 01:13:23;;;;;;;;;;;;;;;17.22;55.04;103100.81;2072534;28;19929;-56
2023/04/18 01:14:25;;;;;;;;;;;;;;;17.22;55.24;103100.81;2081622;28;19937;-57
2023/04/18 01:15:28;;;;;;;;;;;;;;;17.21;55.20;103102.75;2079854;28;19925;-57
2023/04/18 01:16:32;;;;;;;;;;;;;;;17.21;54.96;103100.00;2076860;28;19936;-57
2023/04/18 01:17:34;;;;;;;;;;;;;;;17.21;54.95;103100.00;2072758;28;19968;-57
2023/04/18 01:18:39;;;;;;;;;;;;;;;17.21;55.01;103101.94;2072333;28;19929;-56
2023/04/18 01:19:43;;;;;;;;;;;;;;;17.21;55.05;103101.94;2072293;28;19938;-57
2023/04/18 01:20:46;;;;;;;;;;;;;;;17.21;55.14;103096.47;2078857;28;20696;-54
2023/04/18 01:21:49;;;;;;;;;;;;;;;17.20;54.91;103101.16;2075184;28;19925;-56
2023/04/18 01:22:51;;;;;;;;;;;;;;;17.20;55.44;103103.06;2079998;28;19929;-55
2023/04/18 01:23:54;;;;;;;;;;;;;;;17.20;55.04;103101.16;2065395;28;20422;-57
2023/04/18 01:24:57;;;;;;;;;;;;;;;17.19;55.02;103093.25;2072046;28;19973;-56
2023/04/18 01:26:00;;;;;;;;;;;;;;;17.20;54.75;103095.69;2076835;28;19951;-56
2023/04/18 01:27:02;;;;;;;;;;;;;;;17.19;55.07;103096.00;2063918;28;19969;-57
2023/04/18 01:28:05;;;;;;;;;;;;;;;17.20;54.84;103094.88;2064074;28;19984;-57
2023/04/18 01:29:06;;;;;;;;;;;;;;;17.19;55.30;103098.72;2073618;28;20440;-57
2023/04/18 01:30:10;;;;;;;;;;;;;;;17.19;54.96;103104.19;2073230;28;19933;-57
2023/04/18 01:31:12;;;;;;;;;;;;;;;17.19;54.88;103096.00;2074598;28;19932;-56
2023/04/18 01:32:16;;;;;;;;;;;;;;;17.19;55.07;103096.81;2059630;28;20488;-57
2023/04/18 01:33:20;;;;;;;;;;;;;;;17.18;54.90;103091.66;2064600;28;19936;-56
2023/04/18 01:34:22;;;;;;;;;;;;;;;17.19;55.27;103087.81;2072409;28;19926;-57
2023/04/18 01:35:24;;;;;;;;;;;;;;;17.18;55.18;103095.22;2079777;28;19940;-56
2023/04/18 01:36:27;;;;;;;;;;;;;;;17.18;55.03;103091.66;2079159;28;19975;-57
2023/04/18 01:37:30;;;;;;;;;;;;;;;17.18;55.14;103097.13;2070595;28;19930;-56
2023/04/18 01:38:35;;;;;;;;;;;;;;;17.18;54.71;103091.66;2064594;28;20409;-57
2023/04/18 01:39:36;;;;;;;;;;;;;;;17.18;54.95;103097.13;2069566;28;20408;-56
2023/04/18 01:40:40;;;;;;;;;;;;;;;17.17;55.17;103095.53;2078586;28;19940;-56
2023/04/18 01:41:42;;;;;;;;;;;;;;;17.17;54.76;103104.50;2076373;28;19926;-57
2023/04/18 01:42:45;;;;;;;;;;;;;;;17.16;54.93;103094.72;2074173;28;19933;-56
2023/04/18 01:43:47;;;;;;;;;;;;;;;17.17;54.95;103092.81;2080051;28;19933;-54
2023/04/18 01:44:49;;;;;;;;;;;;;;;17.17;55.13;103095.53;2067484;28;20080;-57
2023/04/18 01:45:51;;;;;;;;;;;;;;;17.17;54.81;103095.53;2073480;28;19925;-57
2023/04/18 01:46:54;;;;;;;;;;;;;;;17.16;54.97;103088.47;2072615;28;20352;-57
2023/04/18 01:47:56;;;;;;;;;;;;;;;17.16;54.93;103083.81;2075765;28;19936;-57
2023/04/18 01:48:59;;;;;;;;;;;;;;;17.15;54.92;103090.41;2072716;28;19953;-60
2023/04/18 01:50:01;;;;;;;;;;;;;;;17.15;55.08;103095.06;2065024;28;19930;-56
2023/04/18 01:51:04;;;;;;;;;;;;;;;17.15;55.09;103095.88;2062982;28;19965;-57
2023/04/18 01:52:06;;;;;;;;;;;;;;;17.15;54.98;103089.59;2075108;28;19982;-55
2023/04/18 01:53:09;;;;;;;;;;;;;;;17.15;54.88;103084.94;2072002;28;19995;-56
2023/04/18 01:54:10;;;;;;;;;;;;;;;17.15;54.81;103086.88;2077050;28;19936;-55
2023/04/18 01:55:13;;;;;;;;;;;;;;;17.14;54.82;103091.53;2079301;28;19925;-58
2023/04/18 01:56:16;;;;;;;;;;;;;;;17.14;54.92;103088.78;2068477;28;20048;-57
2023/04/18 01:57:19;;;;;;;;;;;;;;;17.15;54.71;103097.78;2067398;28;19971;-58
2023/04/18 01:58:24;;;;;;;;;;;;;;;17.15;54.95;103093.13;2072248;28;20390;-57
2023/04/18 01:59:26;;;;;;;;;;;;;;;17.14;54.99;103098.94;2065529;28;19933;-55
2023/04/18 02:00:28;;;;;;;;;;;;;;;17.14;55.12;103094.25;2063575;28;19926;-57
2023/04/18 02:01:30;;;;;;;;;;;;;;;17.14;54.92;103090.75;2072106;28;19936;-56
2023/04/18 02:02:32;;;;;;;;;;;;;;;17.14;55.05;103096.22;2071098;28;21868;-57
2023/04/18 02:03:35;;;;;;;;;;;;;;;17.14;54.84;103090.75;2078154;28;20453;-54
2023/04/18 02:04:37;;;;;;;;;;;;;;;17.14;55.03;103090.75;2073583;28;19937;-57
2023/04/18 02:05:40;;;;;;;;;;;;;;;17.14;54.82;103091.53;2070509;28;20340;-54
2023/04/18 02:06:43;;;;;;;;;;;;;;;17.13;54.78;103100.03;2072752;28;19926;-56
2023/04/18 02:07:48;;;;;;;;;;;;;;;17.13;54.86;103094.59;2073292;28;20359;-55
2023/04/18 02:08:51;;;;;;;;;;;;;;;17.12;54.64;103093.81;2070021;28;19933;-54
2023/04/18 02:09:53;;;;;;;;;;;;;;;17.13;54.87;103097.31;2073050;28;19930;-57
2023/04/18 02:10:55;;;;;;;;;;;;;;;17.13;54.64;103091.84;2074296;28;19933;-56
2023/04/18 02:12:01;;;;;;;;;;;;;;;17.13;54.90;103089.13;2063612;28;19949;-55
2023/04/18 02:13:03;;;;;;;;;;;;;;;17.11;54.80;103092.19;2056474;28;19984;-57
2023/04/18 02:14:06;;;;;;;;;;;;;;;17.12;54.70;103093.81;2069101;28;20313;-56
2023/04/18 02:15:08;;;;;;;;;;;;;;;17.12;54.66;103087.53;2074509;28;20309;-58
2023/04/18 02:16:11;;;;;;;;;;;;;;;17.11;54.85;103086.72;2069196;28;20026;-56
2023/04/18 02:17:13;;;;;;;;;;;;;;;17.11;55.05;103088.69;2067439;28;19961;-56
2023/04/18 02:18:16;;;;;;;;;;;;;;;17.10;54.79;103087.06;2072203;28;19925;-54
2023/04/18 02:19:17;;;;;;;;;;;;;;;17.06;54.85;103084.19;2072863;28;20301;-55
2023/04/18 02:20:20;;;;;;;;;;;;;;;17.11;54.87;103092.19;2069070;28;20048;-55
2023/04/18 02:21:23;;;;;;;;;;;;;;;17.11;54.77;103089.47;2075397;28;19964;-53
2023/04/18 02:22:25;;;;;;;;;;;;;;;17.11;55.01;103080.50;2074722;28;19929;-53
2023/04/18 02:23:27;;;;;;;;;;;;;;;17.11;55.06;103088.69;2075384;28;19925;-55
2023/04/18 02:24:30;;;;;;;;;;;;;;;17.11;54.72;103088.69;2072579;28;19989;-54
2023/04/18 02:25:32;;;;;;;;;;;;;;;17.10;54.96;103090.59;2072212;28;20513;-54
2023/04/18 02:26:34;;;;;;;;;;;;;;;17.10;54.71;103087.06;2068699;28;20000;-55
2023/04/18 02:27:37;;;;;;;;;;;;;;;17.10;54.81;103089.78;2074216;28;19933;-54
2023/04/18 02:28:40;;;;;;;;;;;;;;;17.09;54.73;103090.94;2072738;28;19929;-53
2023/04/18 02:29:41;;;;;;;;;;;;;;;17.09;54.55;103093.66;2069737;28;19929;-55
2023/04/18 02:30:44;;;;;;;;;;;;;;;17.08;54.73;103087.38;2066420;28;19979;-54
2023/04/18 02:31:46;;;;;;;;;;;;;;;17.08;54.69;103086.56;2063827;28;19937;-54
2023/04/18 02:32:50;;;;;;;;;;;;;;;17.09;54.90;103093.66;2072835;28;19933;-54
2023/04/18 02:33:52;;;;;;;;;;;;;;;17.08;54.81;103087.38;2080562;28;19932;-54
2023/04/18 02:34:56;;;;;;;;;;;;;;;17.08;54.69;103087.38;2063955;28;19980;-54
2023/04/18 02:35:58;;;;;;;;;;;;;;;17.08;54.69;103098.31;2066843;28;19925;-54
2023/04/18 02:37:00;;;;;;;;;;;;;;;17.09;54.63;103090.94;2075332;28;20297;-55
2023/04/18 02:38:02;;;;;;;;;;;;;;;17.08;54.73;103092.03;2074480;28;19941;-60
2023/04/18 02:39:04;;;;;;;;;;;;;;;17.08;54.43;103092.03;2072051;28;19960;-54
2023/04/18 02:40:07;;;;;;;;;;;;;;;17.08;54.50;103086.56;2078358;28;19976;-52
2023/04/18 02:41:13;;;;;;;;;;;;;;;17.08;54.60;103092.03;2065604;28;20371;-55
2023/04/18 02:42:15;;;;;;;;;;;;;;;17.08;54.80;103095.56;2066873;28;19937;-54
2023/04/18 02:43:19;;;;;;;;;;;;;;;17.07;54.94;103095.91;2063557;28;19934;-54
2023/04/18 02:44:21;;;;;;;;;;;;;;;17.06;54.93;103088.84;2068788;28;20261;-53
2023/04/18 02:45:24;;;;;;;;;;;;;;;17.07;54.65;103087.72;2078798;28;20411;-55
2023/04/18 02:46:25;;;;;;;;;;;;;;;17.07;55.03;103095.91;2075774;28;19936;-54
2023/04/18 02:47:28;;;;;;;;;;;;;;;17.06;54.90;103089.63;2068857;28;21532;-54
2023/04/18 02:48:33;;;;;;;;;;;;;;;17.06;54.76;103086.13;2064434;28;20397;-55
2023/04/18 02:49:36;;;;;;;;;;;;;;;17.05;54.87;103088.06;2072528;28;20439;-54
2023/04/18 02:50:38;;;;;;;;;;;;;;;17.07;54.59;103085.00;2075194;28;19933;-54
2023/04/18 02:51:41;;;;;;;;;;;;;;;17.06;54.63;103088.84;2071857;28;19930;-53
2023/04/18 02:52:43;;;;;;;;;;;;;;;17.05;54.69;103093.50;2071325;28;20012;-53
2023/04/18 02:53:47;;;;;;;;;;;;;;;17.06;54.92;103088.84;2071788;28;20428;-55
2023/04/18 02:54:48;;;;;;;;;;;;;;;17.06;54.77;103088.84;2072593;28;20374;-55
2023/04/18 02:55:56;;;;;;;;;;;;;;;17.05;54.83;103096.25;2063483;28;19952;-54
2023/04/18 02:57:05;;;;;;;;;;;;;;;17.06;54.75;103099.78;2058903;28;19930;-53
2023/04/18 02:58:21;;;;;;;;;;;;;;;17.04;54.55;103100.09;2065284;28;19936;-54
2023/04/18 02:59:44;;;;;;;;;;;;;;;17.05;54.68;103098.16;2063424;28;20360;-54
2023/04/18 03:01:08;;;;;;;;;;;;;;;17.05;54.67;103106.34;2063457;28;19996;-53
2023/04/18 03:02:32;;;;;;;;;;;;;;;17.04;54.50;103096.56;2064414;28;19969;-54
2023/04/18 03:03:44;;;;;;;;;;;;;;;17.03;54.83;103103.16;2071303;28;19933;-54
2023/04/18 03:04:58;;;;;;;;;;;;;;;17.04;54.73;103107.50;2063285;28;19949;-54
2023/04/18 03:06:01;;;;;;;;;;;;;;;17.04;54.78;103107.50;2057185;28;19930;-54
2023/04/18 03:07:05;;;;;;;;;;;;;;;17.03;54.75;103094.97;2058641;28;20025;-54
2023/04/18 03:08:11;;;;;;;;;;;;;;;17.03;54.43;103094.97;2056432;28;19930;-59
2023/04/18 03:09:13;;;;;;;;;;;;;;;17.03;54.54;103100.44;2063496;28;19925;-54
2023/04/18 03:10:21;;;;;;;;;;;;;;;17.03;54.83;103103.16;2063644;28;19926;-54
2023/04/18 03:11:23;;;;;;;;;;;;;;;17.03;54.47;103100.44;2055378;28;20004;-55
2023/04/18 03:12:26;;;;;;;;;;;;;;;17.02;54.59;103099.63;2063548;28;19975;-54
2023/04/18 03:13:30;;;;;;;;;;;;;;;17.02;54.52;103104.28;2067541;28;20293;-53
2023/04/18 03:14:33;;;;;;;;;;;;;;;17.02;54.59;103104.28;2078118;28;19933;-55
2023/04/18 03:15:34;;;;;;;;;;;;;;;17.02;54.50;103099.63;2071904;28;20301;-59
2023/04/18 03:16:37;;;;;;;;;;;;;;;17.02;54.86;103093.38;2063991;28;19925;-54
2023/04/18 03:17:41;;;;;;;;;;;;;;;17.01;54.58;103099.97;2064003;28;19937;-55
2023/04/18 03:18:44;;;;;;;;;;;;;;;17.02;54.57;103101.56;2072223;28;19937;-53
2023/04/18 03:19:46;;;;;;;;;;;;;;;17.01;54.44;103103.50;2073040;28;19957;-54
2023/04/18 03:20:50;;;;;;;;;;;;;;;17.02;54.73;103096.09;2066758;28;19976;-53
2023/04/18 03:21:52;;;;;;;;;;;;;;;17.01;54.57;103100.78;2056720;28;19937;-54
2023/04/18 03:22:54;;;;;;;;;;;;;;;17.01;54.34;103097.22;2056035;28;20701;-52
2023/04/18 03:23:59;;;;;;;;;;;;;;;17.01;54.29;103100.78;2056092;28;20011;-53
2023/04/18 03:25:02;;;;;;;;;;;;;;;17.00;54.75;103101.88;2055514;28;19927;-56
2023/04/18 03:26:24;;;;;;;;;;;;;;;17.01;54.51;103097.22;2058310;28;20405;-57
2023/04/18 03:27:28;;;;;;;;;;;;;;;17.00;54.49;103098.38;2060126;28;20461;-53
2023/04/18 03:28:32;;;;;;;;;;;;;;;17.00;54.50;103101.88;2057836;28;19930;-53
2023/04/18 03:29:34;;;;;;;;;;;;;;;17.01;54.58;103102.69;2060135;28;20037;-54
2023/04/18 03:30:36;;;;;;;;;;;;;;;17.00;54.43;103110.06;2063715;28;20417;-58
2023/04/18 03:31:40;;;;;;;;;;;;;;;17.00;54.64;103106.56;2071573;28;20483;-55
2023/04/18 03:32:42;;;;;;;;;;;;;;;17.01;54.61;103105.41;2072699;28;19994;-54
2023/04/18 03:33:45;;;;;;;;;;;;;;;16.99;54.74;103103.03;2074219;28;19929;-54
2023/04/18 03:34:48;;;;;;;;;;;;;;;17.00;54.52;103103.81;2064798;28;20479;-55
2023/04/18 03:35:51;;;;;;;;;;;;;;;16.99;54.32;103103.03;2069862;28;19936;-58
2023/04/18 03:36:54;;;;;;;;;;;;;;;16.99;54.46;103099.47;2077765;28;20358;-52
2023/04/18 03:37:56;;;;;;;;;;;;;;;16.99;54.79;103104.94;2069688;28;20329;-54
2023/04/18 03:39:02;;;;;;;;;;;;;;;17.00;54.55;103106.56;2068229;28;19930;-54
2023/04/18 03:40:04;;;;;;;;;;;;;;;16.99;54.56;103103.03;2064693;28;20268;-53
2023/04/18 03:41:07;;;;;;;;;;;;;;;16.98;54.60;103108.81;2068750;28;20377;-55
2023/04/18 03:42:11;;;;;;;;;;;;;;;16.98;54.29;103106.06;2062310;28;20001;-54
2023/04/18 03:43:15;;;;;;;;;;;;;;;16.99;54.63;103110.41;2055450;28;19988;-52
2023/04/18 03:44:18;;;;;;;;;;;;;;;16.99;54.73;103110.41;2063469;28;19929;-55
2023/04/18 03:45:20;;;;;;;;;;;;;;;16.99;54.39;103113.13;2063316;28;20021;-53
2023/04/18 03:46:23;;;;;;;;;;;;;;;16.98;54.49;103106.06;2057186;28;19926;-52
2023/04/18 03:47:29;;;;;;;;;;;;;;;16.98;54.55;103111.53;2061932;28;20534;-53
2023/04/18 03:48:35;;;;;;;;;;;;;;;16.98;54.57;103109.59;2055574;28;19930;-53
2023/04/18 03:49:42;;;;;;;;;;;;;;;16.98;54.19;103103.34;2058741;28;20401;-53
2023/04/18 03:50:44;;;;;;;;;;;;;;;16.97;54.50;103099.00;2068228;28;19934;-54
2023/04/18 03:51:47;;;;;;;;;;;;;;;16.97;54.70;103102.53;2080702;28;19974;-57
2023/04/18 03:52:49;;;;;;;;;;;;;;;16.97;54.42;103108.00;2071816;28;19933;-54
2023/04/18 03:53:53;;;;;;;;;;;;;;;16.97;54.44;103109.91;2070722;28;19932;-54
2023/04/18 03:54:56;;;;;;;;;;;;;;;16.96;54.24;103100.94;2063276;28;19929;-54
2023/04/18 03:56:05;;;;;;;;;;;;;;;16.97;54.52;103107.19;2063803;28;19929;-54
2023/04/18 03:57:29;;;;;;;;;;;;;;;16.97;54.64;103115.38;2062724;28;20277;-54
2023/04/18 03:58:35;;;;;;;;;;;;;;;16.96;54.59;103111.88;2048809;28;19930;-53
2023/04/18 03:59:38;;;;;;;;;;;;;;;16.97;54.35;103115.38;2064165;28;20061;-54
2023/04/18 04:00:41;;;;;;;;;;;;;;;16.96;54.46;103117.31;2070897;28;20325;-52
2023/04/18 04:01:44;;;;;;;;;;;;;;;16.97;54.65;103115.38;2054502;28;19993;-58
2023/04/18 04:02:47;;;;;;;;;;;;;;;16.97;54.58;103115.38;2063008;28;19926;-54
2023/04/18 04:03:53;;;;;;;;;;;;;;;16.96;54.74;103113.78;2059490;28;20416;-52
2023/04/18 04:04:56;;;;;;;;;;;;;;;16.96;54.36;103116.50;2063011;28;20009;-56
2023/04/18 04:05:58;;;;;;;;;;;;;;;16.95;54.46;103115.72;2054760;28;19944;-54
2023/04/18 04:07:01;;;;;;;;;;;;;;;16.95;54.59;103120.38;2048236;28;20025;-53
2023/04/18 04:08:03;;;;;;;;;;;;;;;16.96;54.48;103124.69;2063337;28;19984;-52
2023/04/18 04:09:06;;;;;;;;;;;;;;;16.95;54.35;103114.94;2071151;28;19996;-53
2023/04/18 04:10:08;;;;;;;;;;;;;;;16.95;54.67;103112.97;2066339;28;20336;-54
2023/04/18 04:11:10;;;;;;;;;;;;;;;16.96;54.41;103121.97;2063499;28;19936;-53
2023/04/18 04:12:15;;;;;;;;;;;;;;;16.94;54.41;103125.03;2063839;28;20205;-55
2023/04/18 04:13:18;;;;;;;;;;;;;;;16.95;54.42;103117.66;2063057;28;20378;-54
2023/04/18 04:14:21;;;;;;;;;;;;;;;16.94;54.54;103125.03;2063112;28;19930;-54
2023/04/18 04:15:25;;;;;;;;;;;;;;;16.95;54.52;103125.84;2058272;28;20024;-54
2023/04/18 04:16:35;;;;;;;;;;;;;;;16.94;54.48;103124.22;2056246;28;19949;-55
2023/04/18 04:17:39;;;;;;;;;;;;;;;16.94;54.48;103126.94;2059613;28;19930;-54
2023/04/18 04:18:41;;;;;;;;;;;;;;;16.94;54.54;103129.69;2064431;28;20431;-54
2023/04/18 04:19:44;;;;;;;;;;;;;;;16.94;54.54;103125.03;2071556;28;19926;-55
2023/04/18 04:20:50;;;;;;;;;;;;;;;16.93;54.35;103128.91;2071371;28;19963;-52
2023/04/18 04:22:09;;;;;;;;;;;;;;;16.93;54.48;103125.38;2063598;28;20332;-53
2023/04/18 04:23:11;;;;;;;;;;;;;;;16.93;54.51;103125.38;2063220;28;19926;-55
2023/04/18 04:24:14;;;;;;;;;;;;;;;16.93;54.62;103128.09;2070689;28;19960;-53
2023/04/18 04:25:22;;;;;;;;;;;;;;;16.93;54.54;103123.44;2058810;28;19930;-53
2023/04/18 04:26:27;;;;;;;;;;;;;;;16.92;54.25;103121.81;2053754;28;19927;-53
2023/04/18 04:27:37;;;;;;;;;;;;;;;16.93;54.59;103128.09;2056649;28;19926;-54
2023/04/18 04:28:45;;;;;;;;;;;;;;;16.92;54.38;103123.78;2064217;28;20004;-54
2023/04/18 04:29:51;;;;;;;;;;;;;;;16.92;54.33;103132.75;2065717;28;19972;-54
2023/04/18 04:30:55;;;;;;;;;;;;;;;16.92;54.42;103130.00;2063051;28;20309;-54
2023/04/18 04:31:58;;;;;;;;;;;;;;;16.92;54.52;103121.81;2057290;28;20302;-56
2023/04/18 04:33:10;;;;;;;;;;;;;;;16.92;54.38;103127.28;2067455;28;19934;-54
2023/04/18 04:34:12;;;;;;;;;;;;;;;16.92;54.70;103127.28;2063378;28;20345;-55
2023/04/18 04:35:15;;;;;;;;;;;;;;;16.92;54.77;103121.03;2066227;28;19930;-53
2023/04/18 04:36:18;;;;;;;;;;;;;;;16.92;54.54;103131.97;2067749;28;19926;-53
2023/04/18 04:37:22;;;;;;;;;;;;;;;16.92;54.34;103126.50;2074888;28;19932;-54
2023/04/18 04:38:37;;;;;;;;;;;;;;;16.92;54.59;103137.41;2062588;28;19933;-55
2023/04/18 04:39:39;;;;;;;;;;;;;;;16.91;54.33;103136.59;2064024;28;19930;-53
2023/04/18 04:41:02;;;;;;;;;;;;;;;16.92;54.50;103138.19;2061523;28;19926;-54
2023/04/18 04:42:04;;;;;;;;;;;;;;;16.91;54.69;103133.06;2066842;28;20317;-54
2023/04/18 04:43:15;;;;;;;;;;;;;;;16.91;54.35;103138.53;2071852;28;20365;-53
2023/04/18 04:44:21;;;;;;;;;;;;;;;16.90;54.37;103135.00;2063186;28;19929;-52
2023/04/18 04:45:23;;;;;;;;;;;;;;;16.91;54.49;103130.34;2064637;28;20393;-56
2023/04/18 04:46:29;;;;;;;;;;;;;;;16.92;54.37;103142.88;2068099;28;20354;-54
2023/04/18 04:47:32;;;;;;;;;;;;;;;16.91;54.65;103135.78;2062824;28;19932;-53
2023/04/18 04:48:34;;;;;;;;;;;;;;;16.90;54.49;103137.75;2063707;28;20024;-52
2023/04/18 04:49:38;;;;;;;;;;;;;;;16.90;54.50;103129.56;2066229;28;19949;-54
2023/04/18 04:50:40;;;;;;;;;;;;;;;16.91;54.28;103135.78;2062059;28;19983;-53
2023/04/18 04:51:46;;;;;;;;;;;;;;;16.90;54.25;103135.00;2068482;28;20267;-53
2023/04/18 04:52:48;;;;;;;;;;;;;;;16.90;54.69;103137.75;2067761;28;19926;-54
2023/04/18 04:53:51;;;;;;;;;;;;;;;16.91;54.57;103141.25;2071323;28;19934;-53
2023/04/18 04:54:53;;;;;;;;;;;;;;;16.89;54.67;103140.78;2068971;28;19933;-54
2023/04/18 04:55:58;;;;;;;;;;;;;;;16.90;54.46;103131.47;2062970;28;19973;-52
2023/04/18 04:57:01;;;;;;;;;;;;;;;16.89;54.32;103144.31;2067007;28;21070;-56
2023/04/18 04:58:03;;;;;;;;;;;;;;;16.90;54.40;103139.66;2070410;28;20016;-56
2023/04/18 04:59:18;;;;;;;;;;;;;;;16.89;54.71;103138.03;2059851;28;19926;-54
2023/04/18 05:00:21;;;;;;;;;;;;;;;16.89;54.42;103138.03;2060537;28;20479;-54
2023/04/18 05:01:22;;;;;;;;;;;;;;;16.90;54.31;103139.66;2069430;28;20102;-54
2023/04/18 05:02:27;;;;;;;;;;;;;;;16.89;54.36;103135.31;2071331;28;19988;-53
2023/04/18 05:03:29;;;;;;;;;;;;;;;16.89;54.36;103138.03;2070702;28;19933;-55
2023/04/18 05:04:32;;;;;;;;;;;;;;;16.88;54.47;103137.25;2063030;28;20406;-54
2023/04/18 05:05:33;;;;;;;;;;;;;;;16.88;54.37;103136.44;2062229;28;20456;-54
2023/04/18 05:06:36;;;;;;;;;;;;;;;16.90;54.51;103139.66;2064156;28;19957;-53
2023/04/18 05:07:40;;;;;;;;;;;;;;;16.88;54.42;103140.00;2062242;28;20036;-56
2023/04/18 05:08:43;;;;;;;;;;;;;;;16.88;54.50;103142.72;2061826;28;19980;-56
2023/04/18 05:09:44;;;;;;;;;;;;;;;16.87;54.48;103135.63;2062945;28;20008;-53
2023/04/18 05:10:48;;;;;;;;;;;;;;;16.89;54.42;103138.84;2069555;28;19932;-54
2023/04/18 05:11:50;;;;;;;;;;;;;;;16.89;54.44;103140.78;2066542;28;19937;-58
2023/04/18 05:12:53;;;;;;;;;;;;;;;16.88;54.57;103131.00;2064994;28;19932;-55
2023/04/18 05:13:54;;;;;;;;;;;;;;;16.88;54.53;103140.00;2062436;28;20672;-52
2023/04/18 05:14:57;;;;;;;;;;;;;;;16.88;54.68;103142.72;2063458;28;20389;-57
2023/04/18 05:15:59;;;;;;;;;;;;;;;16.89;54.31;103143.50;2068121;28;20016;-54
2023/04/18 05:17:02;;;;;;;;;;;;;;;16.88;54.43;103139.19;2063153;28;20427;-51
2023/04/18 05:18:07;;;;;;;;;;;;;;;16.88;54.63;103142.72;2058731;28;20352;-52
2023/04/18 05:19:09;;;;;;;;;;;;;;;16.88;54.41;103141.91;2066205;28;19981;-54
2023/04/18 05:20:12;;;;;;;;;;;;;;;16.89;54.54;103143.50;2056952;28;19934;-53
2023/04/18 05:21:13;;;;;;;;;;;;;;;16.88;54.63;103141.91;2064238;28;19933;-51
2023/04/18 05:22:16;;;;;;;;;;;;;;;16.87;54.41;103141.09;2061488;28;19930;-53
2023/04/18 05:23:17;;;;;;;;;;;;;;;16.88;54.40;103141.91;2063215;28;19926;-56
2023/04/18 05:24:20;;;;;;;;;;;;;;;16.87;54.24;103140.31;2063288;28;19956;-54
2023/04/18 05:25:22;;;;;;;;;;;;;;;16.88;54.32;103144.63;2076090;28;20408;-54
2023/04/18 05:26:24;;;;;;;;;;;;;;;16.87;54.30;103145.78;2071608;28;19929;-56